createdAt,value
2022-09-05T00:02:48.754Z,7.82
2022-09-05T00:06:36.739Z,5.57
2022-09-05T00:10:43.662Z,6.32
2022-09-05T00:15:18.948Z,9.90
2022-09-05T00:24:25.473Z,7.82
2022-09-05T00:24:29.348Z,5.53
2022-09-05T00:27:49.778Z,8.43
2022-09-05T00:31:55.283Z,4.80
2022-09-05T00:36:12.702Z,7.50
2022-09-05T00:40:17.685Z,9.88
2022-09-05T00:44:01.537Z,7.57
2022-09-05T00:47:49.770Z,12.68
2022-09-05T00:51:38.110Z,6.65
2022-09-05T00:55:36.762Z,6.45
2022-09-05T00:59:24.666Z,8.50
2022-09-05T01:03:12.216Z,7.70
2022-09-05T01:07:22.128Z,6.50
2022-09-05T01:11:30.041Z,4.57
2022-09-05T01:15:53.686Z,7.47
2022-09-05T01:20:19.322Z,9.20
2022-09-05T01:24:28.096Z,7.63
2022-09-05T01:29:15.151Z,6.80
2022-09-05T01:32:51.711Z,4.95
2022-09-05T01:36:49.224Z,3.80
2022-09-05T01:41:18.331Z,6.53
2022-09-05T01:45:22.016Z,5.30
2022-09-05T01:49:37.656Z,5.03
2022-09-05T01:53:50.908Z,5.90
2022-09-05T01:57:56.640Z,7.15
2022-09-05T02:01:55.789Z,4.63
2022-09-05T02:05:58.886Z,5.90
2022-09-05T02:10:06.949Z,6.00
2022-09-05T02:13:58.110Z,7.45
2022-09-05T02:17:51.186Z,6.90
2022-09-05T02:21:33.494Z,5.45
2022-09-05T02:26:01.934Z,5.88
2022-09-05T02:30:08.688Z,8.43
2022-09-05T02:34:16.303Z,6.60
2022-09-05T02:40:38.984Z,7.22
2022-09-05T02:45:17.867Z,4.65
2022-09-05T02:47:03.999Z,5.00
2022-09-05T02:57:23.295Z,5.18
2022-09-05T02:57:44.821Z,4.35
2022-09-05T03:00:09.408Z,2.92
2022-09-05T03:04:24.503Z,6.47
2022-09-05T03:08:22.790Z,7.00
2022-09-05T03:12:28.419Z,4.78
2022-09-05T03:16:28.601Z,6.07
2022-09-05T03:20:35.393Z,9.20
2022-09-05T03:24:56.480Z,5.90
2022-09-05T03:29:00.823Z,6.13
2022-09-05T03:32:51.556Z,4.32
2022-09-05T03:36:36.234Z,4.93
2022-09-05T03:40:36.604Z,6.18
2022-09-05T03:44:24.295Z,11.13
2022-09-05T03:48:28.634Z,5.38
2022-09-05T03:57:17.338Z,6.53
2022-09-05T03:57:19.611Z,8.13
2022-09-05T04:01:37.158Z,12.10
2022-09-05T04:08:18.264Z,6.63
2022-09-05T04:09:51.210Z,6.18
2022-09-05T04:13:57.444Z,8.13
2022-09-05T04:17:47.056Z,7.50
2022-09-05T04:21:33.416Z,5.97
2022-09-05T04:25:33.860Z,4.95
2022-09-05T04:29:28.642Z,7.97
2022-09-05T04:33:36.490Z,6.18
2022-09-05T04:37:49.686Z,7.30
2022-09-05T04:41:39.609Z,8.50
2022-09-05T04:45:24.571Z,6.28
2022-09-05T04:49:24.425Z,5.70
2022-09-05T04:53:09.211Z,7.65
2022-09-05T04:57:13.859Z,7.95
2022-09-05T05:06:02.478Z,4.38
2022-09-05T05:06:13.495Z,3.95
2022-09-05T05:09:26.120Z,5.35
2022-09-05T05:17:59.346Z,3.35
2022-09-05T05:18:15.466Z,3.78
2022-09-05T05:21:34.697Z,3.03
2022-09-05T05:25:16.601Z,4.65
2022-09-05T05:29:19.847Z,3.47
2022-09-05T05:33:11.205Z,4.50
2022-09-05T05:37:13.526Z,8.70
2022-09-05T05:41:25.247Z,5.05
2022-09-05T05:45:25.319Z,3.33
2022-09-05T05:49:30.916Z,9.32
2022-09-05T05:53:42.901Z,6.45
2022-09-05T05:58:02.531Z,6.18
2022-09-05T06:02:02.203Z,6.43
2022-09-05T06:06:23.121Z,6.68
2022-09-05T06:14:49.535Z,4.80
2022-09-05T06:15:26.832Z,7.63
2022-09-05T06:24:07.688Z,7.75
2022-09-05T06:28:17.353Z,13.73
2022-09-05T06:32:41.809Z,9.82
2022-09-05T06:36:44.344Z,9.18
2022-09-05T06:40:34.932Z,12.43
2022-09-05T06:44:32.912Z,9.57
2022-09-05T06:48:45.784Z,9.60
2022-09-05T06:52:57.737Z,9.00
2022-09-05T06:57:10.234Z,11.48
2022-09-05T07:00:57.917Z,10.02
2022-09-05T07:05:38.336Z,10.23
2022-09-05T07:09:01.275Z,11.40
2022-09-05T07:12:55.289Z,12.35
2022-09-05T07:16:52.976Z,16.95
2022-09-05T07:21:17.909Z,10.43
2022-09-05T07:25:08.839Z,20.65
2022-09-05T07:28:57.732Z,16.17
2022-09-05T07:32:47.819Z,16.88
2022-09-05T07:36:37.608Z,16.77
2022-09-05T07:40:26.164Z,17.33
2022-09-05T07:44:22.130Z,17.63
2022-09-05T07:48:13.381Z,13.50
2022-09-05T07:56:49.104Z,17.23
2022-09-05T07:56:50.494Z,19.65
2022-09-05T08:00:10.699Z,18.85
2022-09-05T08:04:24.025Z,17.13
2022-09-05T08:08:14.140Z,12.93
2022-09-05T08:12:09.420Z,14.75
2022-09-05T08:16:10.634Z,16.37
2022-09-05T08:20:15.894Z,16.88
2022-09-05T08:24:25.398Z,12.88
2022-09-05T08:28:19.598Z,16.27
2022-09-05T08:32:08.464Z,11.40
2022-09-05T08:36:00.917Z,13.60
2022-09-05T08:39:44.457Z,11.75
2022-09-05T08:46:02.049Z,12.48
2022-09-05T08:47:55.872Z,14.20
2022-09-05T08:51:55.479Z,11.65
2022-09-05T08:55:58.917Z,14.10
2022-09-05T09:00:20.420Z,13.75
2022-09-05T09:05:01.130Z,14.05
2022-09-05T09:09:05.274Z,13.30
2022-09-05T09:13:18.411Z,14.32
2022-09-05T09:17:06.782Z,13.43
2022-09-05T09:20:48.633Z,10.35
2022-09-05T09:25:15.348Z,11.02
2022-09-05T09:29:12.448Z,9.40
2022-09-05T09:33:02.110Z,10.45
2022-09-05T09:37:12.380Z,11.48
2022-09-05T09:41:24.431Z,7.63
2022-09-05T09:45:28.780Z,10.23
2022-09-05T09:49:23.111Z,10.63
2022-09-05T09:53:15.296Z,12.43
2022-09-05T09:57:12.224Z,9.30
2022-09-05T10:01:37.301Z,13.48
2022-09-05T10:10:34.719Z,11.88
2022-09-05T10:10:51.764Z,16.05
2022-09-05T10:15:30.456Z,8.82
2022-09-05T10:23:44.271Z,12.10
2022-09-05T10:27:46.604Z,10.75
2022-09-05T10:35:10.023Z,9.68
2022-09-05T10:36:22.271Z,10.38
2022-09-05T10:40:10.898Z,11.60
2022-09-05T10:44:02.308Z,9.50
2022-09-05T10:47:58.446Z,8.70
2022-09-05T10:52:04.120Z,8.07
2022-09-05T11:02:22.428Z,5.82
2022-09-05T11:04:46.689Z,9.38
2022-09-05T11:08:49.287Z,10.25
2022-09-05T11:13:05.828Z,10.55
2022-09-05T11:16:54.132Z,9.05
2022-09-05T11:21:00.453Z,6.07
2022-09-05T11:28:55.763Z,11.50
2022-09-05T11:37:37.143Z,7.38
2022-09-05T11:40:07.146Z,6.68
2022-09-05T11:41:55.308Z,13.10
2022-09-05T11:45:58.638Z,10.10
2022-09-05T11:50:02.046Z,10.18
2022-09-05T11:54:18.132Z,7.60
2022-09-05T11:58:45.100Z,10.43
2022-09-05T12:02:41.271Z,7.07
2022-09-05T12:06:49.565Z,7.10
2022-09-05T12:11:10.860Z,8.02
2022-09-05T12:15:04.485Z,7.53
2022-09-05T12:19:19.554Z,9.38
2022-09-05T12:23:49.327Z,6.97
2022-09-05T12:27:46.212Z,6.53
2022-09-05T12:33:01.424Z,4.97
2022-09-05T12:40:16.571Z,10.43
2022-09-05T12:41:34.145Z,5.40
2022-09-05T12:44:45.457Z,5.68
2022-09-05T12:48:48.207Z,8.23
2022-09-05T12:52:34.020Z,7.10
2022-09-05T12:58:12.467Z,5.10
2022-09-05T13:03:01.749Z,6.20
2022-09-05T13:05:02.066Z,4.50
2022-09-05T13:08:49.074Z,8.38
2022-09-05T13:14:58.078Z,8.05
2022-09-05T13:16:52.911Z,4.30
2022-09-05T13:20:45.713Z,4.68
2022-09-05T13:24:41.452Z,4.50
2022-09-05T13:37:54.209Z,5.05
2022-09-05T13:38:00.576Z,3.03
2022-09-05T13:40:49.793Z,3.75
2022-09-05T13:44:40.450Z,3.83
2022-09-05T13:52:47.584Z,3.85
2022-09-05T13:56:33.149Z,6.25
2022-09-05T14:00:28.188Z,5.80
2022-09-05T14:04:13.462Z,4.30
2022-09-05T14:07:59.081Z,4.88
2022-09-05T14:11:52.853Z,7.03
2022-09-05T14:15:58.808Z,4.93
2022-09-05T14:20:02.168Z,5.40
2022-09-05T14:23:56.035Z,3.67
2022-09-05T14:27:45.133Z,3.17
2022-09-05T14:37:36.152Z,5.50
2022-09-05T14:37:50.670Z,4.57
2022-09-05T14:40:32.985Z,4.65
2022-09-05T14:44:23.757Z,4.05
2022-09-05T14:48:17.829Z,3.35
2022-09-05T14:52:13.592Z,4.18
2022-09-05T14:57:23.847Z,4.30
2022-09-05T15:02:39.817Z,3.92
2022-09-05T15:11:25.290Z,2.75
2022-09-05T15:12:39.762Z,3.97
2022-09-05T15:16:27.188Z,5.25
2022-09-05T15:20:09.806Z,2.15
2022-09-05T15:23:59.355Z,3.85
2022-09-05T15:27:44.101Z,3.72
2022-09-05T15:31:27.972Z,4.25
2022-09-05T15:35:16.059Z,3.42
2022-09-05T15:39:02.349Z,3.33
2022-09-05T15:43:00.802Z,6.60
2022-09-05T15:46:59.742Z,4.03
2022-09-05T15:50:51.496Z,6.88
2022-09-05T15:54:40.574Z,5.28
2022-09-05T15:58:22.757Z,4.60
2022-09-05T16:02:13.493Z,4.07
2022-09-05T16:10:28.465Z,2.30
2022-09-05T16:10:33.771Z,4.03
2022-09-05T16:14:22.440Z,3.15
2022-09-05T16:23:19.909Z,6.50
2022-09-05T16:23:25.661Z,4.90
2022-09-05T16:26:43.265Z,3.13
2022-09-05T16:30:37.572Z,3.40
2022-09-05T16:34:38.119Z,3.47
2022-09-05T16:38:48.752Z,4.05
2022-09-05T16:42:46.802Z,4.10
2022-09-05T16:46:49.511Z,3.42
2022-09-05T16:50:48.034Z,5.03
2022-09-05T16:54:48.473Z,3.90
2022-09-05T16:58:44.497Z,3.47
2022-09-05T17:06:45.804Z,4.75
2022-09-05T17:10:41.924Z,3.13
2022-09-05T17:14:25.860Z,2.38
2022-09-05T17:18:25.045Z,3.58
2022-09-05T17:28:09.250Z,4.55
2022-09-05T17:29:31.060Z,5.05
2022-09-05T17:35:16.733Z,3.47
2022-09-05T17:39:07.893Z,4.80
2022-09-05T17:43:28.880Z,3.85
2022-09-05T17:47:28.869Z,4.65
2022-09-05T17:51:18.399Z,5.60
2022-09-05T17:55:00.214Z,2.88
2022-09-05T17:59:22.175Z,3.65
2022-09-05T18:03:04.083Z,6.70
2022-09-05T18:06:52.715Z,2.40
2022-09-05T18:11:13.939Z,3.30
2022-09-05T18:15:05.121Z,3.53
2022-09-05T18:19:32.371Z,2.95
2022-09-05T18:23:34.265Z,5.03
2022-09-05T18:28:04.121Z,5.28
2022-09-05T18:31:41.475Z,4.93
2022-09-05T18:35:30.900Z,3.17
2022-09-05T18:39:26.060Z,5.07
2022-09-05T18:43:32.182Z,3.58
2022-09-05T18:47:32.969Z,5.75
2022-09-05T18:51:21.522Z,5.68
2022-09-05T18:55:52.672Z,6.53
2022-09-05T18:59:28.756Z,7.72
2022-09-05T19:03:29.238Z,4.70
2022-09-05T19:07:17.107Z,7.45
2022-09-05T19:11:01.991Z,9.63
2022-09-05T19:15:15.642Z,8.52
2022-09-05T19:19:09.348Z,6.40
2022-09-05T19:23:10.444Z,5.60
2022-09-05T19:27:38.636Z,7.88
2022-09-05T19:36:45.019Z,7.13
2022-09-05T19:37:07.768Z,6.07
2022-09-05T19:41:49.491Z,4.88
2022-09-05T19:47:36.180Z,4.28
2022-09-05T19:51:37.192Z,4.40
2022-09-05T19:55:27.555Z,5.22
2022-09-05T19:59:26.809Z,4.25
2022-09-05T20:07:20.856Z,3.17
2022-09-05T20:11:04.954Z,2.90
2022-09-05T20:14:47.134Z,2.35
2022-09-05T20:18:36.582Z,1.80
2022-09-05T20:22:48.062Z,7.10
2022-09-05T20:26:30.515Z,3.38
2022-09-05T20:30:20.079Z,2.90
2022-09-05T20:35:42.090Z,2.58
2022-09-05T20:43:30.175Z,1.90
2022-09-05T20:52:51.773Z,2.78
2022-09-05T20:54:20.740Z,1.90
2022-09-05T20:54:58.216Z,2.55
2022-09-05T21:07:22.930Z,2.35
2022-09-05T21:15:52.638Z,1.92
2022-09-05T21:23:39.544Z,3.08
2022-09-05T21:27:27.357Z,3.60
2022-09-05T21:31:12.194Z,2.13
2022-09-05T21:34:58.612Z,1.05
2022-09-05T21:38:42.887Z,1.23
2022-09-05T21:43:42.271Z,2.75
2022-09-05T21:47:41.739Z,2.95
2022-09-05T21:50:44.389Z,2.60
2022-09-05T21:58:13.046Z,1.75
2022-09-05T21:59:27.732Z,2.97
2022-09-05T22:02:54.207Z,2.95
2022-09-05T22:06:36.940Z,1.30
2022-09-05T22:10:24.032Z,1.85
2022-09-05T22:14:26.130Z,3.38
2022-09-05T22:18:17.892Z,2.40
2022-09-05T22:22:18.274Z,1.42
2022-09-05T22:26:05.354Z,2.67
2022-09-05T22:29:50.466Z,3.88
2022-09-05T22:33:32.823Z,2.20
2022-09-05T22:37:16.405Z,3.42
2022-09-05T22:40:58.305Z,1.90
2022-09-05T22:48:53.146Z,1.70
2022-09-05T22:52:59.456Z,3.55
2022-09-05T22:57:15.829Z,2.65
2022-09-05T23:05:37.397Z,5.38
2022-09-05T23:09:19.267Z,7.75
2022-09-05T23:13:05.659Z,2.42
2022-09-05T23:16:47.721Z,4.95
2022-09-05T23:20:32.017Z,4.45
2022-09-05T23:24:14.066Z,4.85
2022-09-05T23:27:56.984Z,3.35
2022-09-05T23:31:39.224Z,4.28
2022-09-05T23:35:21.910Z,3.47
2022-09-05T23:39:03.882Z,5.72
2022-09-05T23:42:53.703Z,4.57
2022-09-05T23:46:35.714Z,5.22
2022-09-05T23:50:18.230Z,5.22
2022-09-05T23:54:00.164Z,5.45
2022-09-05T23:57:42.588Z,3.78
